createdAt,value
2022-10-10T00:01:41.624Z,5.57
2022-10-10T00:04:08.300Z,5.80
2022-10-10T00:06:35.196Z,6.47
2022-10-10T00:09:03.511Z,7.97
2022-10-10T00:11:30.561Z,4.97
2022-10-10T00:13:57.647Z,8.43
2022-10-10T00:16:24.443Z,6.13
2022-10-10T00:18:52.227Z,8.52
2022-10-10T00:21:19.203Z,9.80
2022-10-10T00:23:45.886Z,4.90
2022-10-10T00:26:17.697Z,5.70
2022-10-10T00:28:45.972Z,8.25
2022-10-10T00:31:12.725Z,4.95
2022-10-10T00:33:39.471Z,5.28
2022-10-10T00:36:07.112Z,4.97
2022-10-10T00:38:33.828Z,7.53
2022-10-10T00:41:00.814Z,7.03
2022-10-10T00:43:28.114Z,4.65
2022-10-10T00:45:55.287Z,5.75
2022-10-10T00:48:30.103Z,6.93
2022-10-10T00:51:02.940Z,6.43
2022-10-10T00:53:36.899Z,4.68
2022-10-10T00:56:04.285Z,4.72
2022-10-10T00:58:32.334Z,8.60
2022-10-10T01:00:59.151Z,6.07
2022-10-10T01:03:25.971Z,5.65
2022-10-10T01:05:52.731Z,3.72
2022-10-10T01:08:21.202Z,6.43
2022-10-10T01:10:56.727Z,8.40
2022-10-10T01:13:55.610Z,6.60
2022-10-10T01:16:28.264Z,5.22
2022-10-10T01:19:21.087Z,7.82
2022-10-10T01:22:06.359Z,4.37
2022-10-10T01:24:55.413Z,5.93
2022-10-10T01:27:55.737Z,6.55
2022-10-10T01:30:24.390Z,6.63
2022-10-10T01:32:59.047Z,4.53
2022-10-10T01:35:43.888Z,6.32
2022-10-10T01:38:44.705Z,6.05
2022-10-10T01:41:16.784Z,4.85
2022-10-10T01:43:43.490Z,6.18
2022-10-10T01:46:12.754Z,8.05
2022-10-10T01:48:41.090Z,6.82
2022-10-10T01:51:29.022Z,7.93
2022-10-10T01:54:34.177Z,4.18
2022-10-10T01:57:20.761Z,5.43
2022-10-10T02:00:04.572Z,8.20
2022-10-10T02:02:46.276Z,5.15
2022-10-10T02:05:31.599Z,7.50
2022-10-10T02:08:10.337Z,7.25
2022-10-10T02:11:10.614Z,6.60
2022-10-10T02:14:02.546Z,9.57
2022-10-10T02:16:37.481Z,6.40
2022-10-10T02:19:08.710Z,5.80
2022-10-10T02:21:35.416Z,6.85
2022-10-10T02:24:05.988Z,5.72
2022-10-10T02:26:33.768Z,4.22
2022-10-10T02:29:07.583Z,7.75
2022-10-10T02:32:18.172Z,7.97
2022-10-10T02:34:49.879Z,4.28
2022-10-10T02:37:17.231Z,5.20
2022-10-10T02:39:48.994Z,5.07
2022-10-10T02:42:17.934Z,8.20
2022-10-10T02:44:46.444Z,7.53
2022-10-10T02:47:13.694Z,8.15
2022-10-10T02:49:40.927Z,6.22
2022-10-10T02:52:07.855Z,4.95
2022-10-10T02:54:34.627Z,8.13
2022-10-10T02:57:01.260Z,6.10
2022-10-10T02:59:27.946Z,4.72
2022-10-10T03:01:54.617Z,7.30
2022-10-10T03:04:21.265Z,5.22
2022-10-10T03:06:47.872Z,4.60
2022-10-10T03:09:14.707Z,5.68
2022-10-10T03:11:41.578Z,9.20
2022-10-10T03:14:08.246Z,10.23
2022-10-10T03:16:34.999Z,12.38
2022-10-10T03:19:03.250Z,11.93
2022-10-10T03:21:30.175Z,8.57
2022-10-10T03:23:57.590Z,7.47
2022-10-10T03:26:24.225Z,7.35
2022-10-10T03:28:51.138Z,7.85
2022-10-10T03:31:17.906Z,4.35
2022-10-10T03:33:44.586Z,5.55
2022-10-10T03:36:11.194Z,4.95
2022-10-10T03:38:40.042Z,4.78
2022-10-10T03:41:06.845Z,6.45
2022-10-10T03:43:33.535Z,5.32
2022-10-10T03:46:00.206Z,9.30
2022-10-10T03:48:26.883Z,4.35
2022-10-10T03:50:53.505Z,5.78
2022-10-10T03:53:20.222Z,5.57
2022-10-10T03:55:46.825Z,7.68
2022-10-10T03:58:13.628Z,4.88
2022-10-10T04:00:40.604Z,4.10
2022-10-10T04:03:08.154Z,4.13
2022-10-10T04:05:39.453Z,3.38
2022-10-10T04:08:06.758Z,4.60
2022-10-10T04:10:33.489Z,5.10
2022-10-10T04:13:00.443Z,6.30
2022-10-10T04:15:27.368Z,2.83
2022-10-10T04:17:54.028Z,4.22
2022-10-10T04:20:20.710Z,4.05
2022-10-10T04:22:47.558Z,6.90
2022-10-10T04:25:14.312Z,3.38
2022-10-10T04:27:41.097Z,6.03
2022-10-10T04:30:08.278Z,8.30
2022-10-10T04:32:34.981Z,4.75
2022-10-10T04:35:01.859Z,2.75
2022-10-10T04:37:28.599Z,4.68
2022-10-10T04:39:55.361Z,4.97
2022-10-10T04:42:22.122Z,8.18
2022-10-10T04:44:49.046Z,5.13
2022-10-10T04:47:15.678Z,6.03
2022-10-10T04:49:42.430Z,7.13
2022-10-10T04:52:10.701Z,4.35
2022-10-10T04:54:37.655Z,4.07
2022-10-10T04:57:04.544Z,7.60
2022-10-10T04:59:31.266Z,5.90
2022-10-10T05:02:01.511Z,6.78
2022-10-10T05:04:28.763Z,6.13
2022-10-10T05:06:55.482Z,7.93
2022-10-10T05:09:22.176Z,5.75
2022-10-10T05:11:48.933Z,6.78
2022-10-10T05:14:15.581Z,4.65
2022-10-10T05:16:42.586Z,7.13
2022-10-10T05:19:09.238Z,3.95
2022-10-10T05:21:35.871Z,5.85
2022-10-10T05:24:03.322Z,7.95
2022-10-10T05:26:30.171Z,3.55
2022-10-10T05:28:56.825Z,3.55
2022-10-10T05:31:23.450Z,5.50
2022-10-10T05:33:50.161Z,7.32
2022-10-10T05:36:16.984Z,5.47
2022-10-10T05:38:43.706Z,4.93
2022-10-10T05:41:10.334Z,8.70
2022-10-10T05:43:37.231Z,4.18
2022-10-10T05:46:04.079Z,4.72
2022-10-10T05:48:31.111Z,4.20
2022-10-10T05:50:59.795Z,5.32
2022-10-10T05:53:27.754Z,4.05
2022-10-10T05:55:54.446Z,8.88
2022-10-10T05:58:21.115Z,6.80
2022-10-10T06:00:57.672Z,5.25
2022-10-10T06:03:24.573Z,7.68
2022-10-10T06:05:52.150Z,4.90
2022-10-10T06:08:19.122Z,3.42
2022-10-10T06:10:46.661Z,7.60
2022-10-10T06:13:16.755Z,5.22
2022-10-10T06:15:50.339Z,4.40
2022-10-10T06:18:17.063Z,5.32
2022-10-10T06:20:43.826Z,3.42
2022-10-10T06:23:10.501Z,6.88
2022-10-10T06:25:41.712Z,4.85
2022-10-10T06:28:14.495Z,7.25
2022-10-10T06:30:43.013Z,3.50
2022-10-10T06:33:10.377Z,4.63
2022-10-10T06:35:44.514Z,4.07
2022-10-10T06:38:12.346Z,5.93
2022-10-10T06:40:39.532Z,6.25
2022-10-10T06:43:12.254Z,3.80
2022-10-10T06:45:40.940Z,5.80
2022-10-10T06:48:08.451Z,4.15
2022-10-10T06:50:35.990Z,5.97
2022-10-10T06:53:02.702Z,4.95
2022-10-10T06:55:30.021Z,7.13
2022-10-10T06:57:57.577Z,6.63
2022-10-10T07:00:24.812Z,4.50
2022-10-10T07:02:52.760Z,6.65
2022-10-10T07:05:19.736Z,5.75
2022-10-10T07:07:46.469Z,4.57
2022-10-10T07:10:15.544Z,9.93
2022-10-10T07:12:44.690Z,7.88
2022-10-10T07:15:12.232Z,6.88
2022-10-10T07:17:39.320Z,7.25
2022-10-10T07:20:06.706Z,5.55
2022-10-10T07:22:33.986Z,5.63
2022-10-10T07:25:00.693Z,4.22
2022-10-10T07:27:27.665Z,8.75
2022-10-10T07:29:54.427Z,7.15
2022-10-10T07:32:21.195Z,6.68
2022-10-10T07:34:47.821Z,5.10
2022-10-10T07:37:14.498Z,4.38
2022-10-10T07:39:41.140Z,9.82
2022-10-10T07:42:07.805Z,5.63
2022-10-10T07:44:34.929Z,8.73
2022-10-10T07:47:01.937Z,7.20
2022-10-10T07:49:28.810Z,5.75
2022-10-10T07:52:00.507Z,7.53
2022-10-10T07:54:29.244Z,8.25
2022-10-10T07:56:56.151Z,8.07
2022-10-10T07:59:23.920Z,11.10
2022-10-10T08:01:51.462Z,5.95
2022-10-10T08:04:18.887Z,7.05
2022-10-10T08:06:45.650Z,8.10
2022-10-10T08:09:12.424Z,7.07
2022-10-10T08:11:39.145Z,6.72
2022-10-10T08:14:05.985Z,6.68
2022-10-10T08:16:32.906Z,6.47
2022-10-10T08:18:59.699Z,11.10
2022-10-10T08:21:26.479Z,6.63
2022-10-10T08:23:53.148Z,11.57
2022-10-10T08:26:22.674Z,5.72
2022-10-10T08:28:49.547Z,5.10
2022-10-10T08:31:19.384Z,12.23
2022-10-10T08:33:47.921Z,8.27
2022-10-10T08:36:22.185Z,5.40
2022-10-10T08:38:49.885Z,6.90
2022-10-10T08:41:39.527Z,6.88
2022-10-10T08:44:27.973Z,8.23
2022-10-10T08:47:09.224Z,7.13
2022-10-10T08:49:41.198Z,5.13
2022-10-10T08:52:12.126Z,8.25
2022-10-10T08:54:41.305Z,12.15
2022-10-10T08:57:27.832Z,5.93
2022-10-10T09:00:02.392Z,8.02
2022-10-10T09:02:50.237Z,5.35
2022-10-10T09:05:26.570Z,9.15
2022-10-10T09:08:27.003Z,8.25
2022-10-10T09:11:23.171Z,6.55
2022-10-10T09:14:26.547Z,7.60
2022-10-10T09:17:14.433Z,7.03
2022-10-10T09:20:05.769Z,9.15
2022-10-10T09:22:40.249Z,7.20
2022-10-10T09:25:16.607Z,8.88
2022-10-10T09:28:21.522Z,13.05
2022-10-10T09:30:56.990Z,11.13
2022-10-10T09:33:28.040Z,8.00
2022-10-10T09:35:59.285Z,8.55
2022-10-10T09:38:33.435Z,8.25
2022-10-10T09:41:06.196Z,10.70
2022-10-10T09:43:34.594Z,17.35
2022-10-10T09:46:02.019Z,15.50
2022-10-10T09:48:38.519Z,14.95
2022-10-10T09:51:08.928Z,15.25
2022-10-10T09:53:35.711Z,19.00
2022-10-10T09:56:05.853Z,22.70
2022-10-10T09:58:42.798Z,17.30
2022-10-10T10:01:18.615Z,19.08
2022-10-10T10:04:33.450Z,15.25
2022-10-10T10:07:22.312Z,13.18
2022-10-10T10:09:55.499Z,14.40
2022-10-10T10:12:25.378Z,11.38
2022-10-10T10:14:58.773Z,15.45
2022-10-10T10:17:25.548Z,15.80
2022-10-10T10:19:52.886Z,17.52
2022-10-10T10:22:26.602Z,11.32
2022-10-10T10:24:54.036Z,15.48
2022-10-10T10:27:23.783Z,16.10
2022-10-10T10:29:53.142Z,19.80
2022-10-10T10:32:58.746Z,13.15
2022-10-10T10:35:35.569Z,13.98
2022-10-10T10:38:18.709Z,14.43
2022-10-10T10:41:23.954Z,15.32
2022-10-10T10:44:14.254Z,18.10
2022-10-10T10:46:47.800Z,13.43
2022-10-10T10:49:36.106Z,17.52
2022-10-10T10:52:25.779Z,15.98
2022-10-10T10:55:10.708Z,15.32
2022-10-10T10:58:54.989Z,19.40
2022-10-10T11:01:28.714Z,17.15
2022-10-10T11:07:17.327Z,13.50
2022-10-10T11:10:16.827Z,14.32
2022-10-10T11:12:54.354Z,15.38
2022-10-10T11:15:37.556Z,13.18
2022-10-10T11:18:25.772Z,12.38
2022-10-10T11:21:00.970Z,14.35
2022-10-10T11:23:33.858Z,17.15
2022-10-10T11:26:13.904Z,18.10
2022-10-10T11:29:09.687Z,11.05
2022-10-10T11:31:37.669Z,12.32
2022-10-10T11:34:17.569Z,15.85
2022-10-10T11:36:47.098Z,17.15
2022-10-10T11:39:23.075Z,13.95
2022-10-10T11:42:01.652Z,19.55
2022-10-10T11:44:34.380Z,14.63
2022-10-10T11:47:04.049Z,14.20
2022-10-10T11:49:36.645Z,15.38
2022-10-10T11:52:34.133Z,20.63
2022-10-10T11:55:13.459Z,12.98
2022-10-10T11:58:05.295Z,12.10
2022-10-10T12:00:43.922Z,9.88
2022-10-10T12:03:11.046Z,9.00
2022-10-10T12:05:42.163Z,7.88
2022-10-10T12:08:22.316Z,11.48
2022-10-10T12:10:51.301Z,10.38
2022-10-10T12:13:32.181Z,11.32
2022-10-10T12:16:05.720Z,13.63
2022-10-10T12:18:39.692Z,12.38
2022-10-10T12:21:13.747Z,13.60
2022-10-10T12:23:43.006Z,14.15
2022-10-10T12:26:22.365Z,19.60
2022-10-10T12:29:04.753Z,15.13
2022-10-10T12:31:36.974Z,15.20
2022-10-10T12:34:43.744Z,13.43
2022-10-10T12:37:34.181Z,15.73
2022-10-10T12:40:06.808Z,15.00
2022-10-10T12:43:00.646Z,16.17
2022-10-10T12:45:33.195Z,16.50
2022-10-10T12:48:20.199Z,12.95
2022-10-10T12:51:01.286Z,14.75
2022-10-10T12:53:31.682Z,13.32
2022-10-10T12:56:01.677Z,13.10
2022-10-10T12:58:33.487Z,14.23
2022-10-10T13:01:04.243Z,11.73
2022-10-10T13:03:45.393Z,16.65
2022-10-10T13:06:39.404Z,13.30
2022-10-10T13:09:16.768Z,9.02
2022-10-10T13:11:55.464Z,9.82
2022-10-10T13:14:23.133Z,9.50
2022-10-10T13:16:49.784Z,9.82
2022-10-10T13:19:19.754Z,10.18
2022-10-10T13:21:47.356Z,12.10
2022-10-10T13:24:17.869Z,8.40
2022-10-10T13:26:50.589Z,12.50
2022-10-10T13:29:23.159Z,9.07
2022-10-10T13:31:53.015Z,10.25
2022-10-10T13:34:27.243Z,10.23
2022-10-10T13:36:57.875Z,8.10
2022-10-10T13:39:25.655Z,11.15
2022-10-10T13:41:54.023Z,10.43
2022-10-10T13:44:47.736Z,10.73
2022-10-10T13:50:00.023Z,10.52
2022-10-10T13:52:26.813Z,10.70
2022-10-10T13:54:53.626Z,10.60
2022-10-10T13:57:24.380Z,13.27
2022-10-10T14:00:01.797Z,13.52
2022-10-10T14:02:32.603Z,10.82
2022-10-10T14:05:05.457Z,11.40
2022-10-10T14:07:32.216Z,10.75
2022-10-10T14:10:09.752Z,9.15
2022-10-10T14:12:50.933Z,8.95
2022-10-10T14:15:37.324Z,13.85
2022-10-10T14:18:13.590Z,13.93
2022-10-10T14:20:40.253Z,10.45
2022-10-10T14:23:06.999Z,9.20
2022-10-10T14:25:33.857Z,8.68
2022-10-10T14:28:00.573Z,9.80
2022-10-10T14:30:27.306Z,11.52
2022-10-10T14:32:53.983Z,10.00
2022-10-10T14:35:20.687Z,10.43
2022-10-10T14:37:47.363Z,10.48
2022-10-10T14:40:23.048Z,7.47
2022-10-10T14:42:49.749Z,9.48
2022-10-10T14:45:17.666Z,13.82
2022-10-10T14:47:44.373Z,11.30
2022-10-10T14:50:16.678Z,10.43
2022-10-10T14:52:43.568Z,9.30
2022-10-10T14:55:11.725Z,9.50
2022-10-10T14:57:38.903Z,10.25
2022-10-10T15:00:08.145Z,8.10
2022-10-10T15:02:34.981Z,11.73
2022-10-10T15:05:01.836Z,7.72
2022-10-10T15:07:29.056Z,8.57
2022-10-10T15:10:32.262Z,6.18
2022-10-10T15:12:44.510Z,7.43
2022-10-10T15:15:13.834Z,7.28
2022-10-10T15:17:41.898Z,7.93
2022-10-10T15:20:10.855Z,9.57
2022-10-10T15:22:37.778Z,8.05
2022-10-10T15:25:06.095Z,6.45
2022-10-10T15:27:33.577Z,7.63
2022-10-10T15:30:00.918Z,7.05
2022-10-10T15:32:27.673Z,8.73
2022-10-10T15:34:54.630Z,8.00
2022-10-10T15:37:25.797Z,7.43
2022-10-10T15:39:52.702Z,8.75
2022-10-10T15:42:22.943Z,7.07
2022-10-10T15:44:50.799Z,9.50
2022-10-10T15:47:20.826Z,11.82
2022-10-10T15:49:47.973Z,12.35
2022-10-10T15:52:14.979Z,7.78
2022-10-10T15:54:41.869Z,6.68
2022-10-10T15:57:08.646Z,4.65
2022-10-10T15:59:37.919Z,6.97
2022-10-10T16:02:07.376Z,5.22
2022-10-10T16:04:34.114Z,6.15
2022-10-10T16:09:47.395Z,10.57
2022-10-10T16:12:14.060Z,6.30
2022-10-10T16:14:40.721Z,3.95
2022-10-10T16:17:07.384Z,7.38
2022-10-10T16:19:34.083Z,7.55
2022-10-10T16:22:00.784Z,5.93
2022-10-10T16:24:27.471Z,6.93
2022-10-10T16:26:54.253Z,8.88
2022-10-10T16:29:20.985Z,8.77
2022-10-10T16:31:47.700Z,5.00
2022-10-10T16:34:16.191Z,5.43
2022-10-10T16:36:43.252Z,8.57
2022-10-10T16:39:10.391Z,4.47
2022-10-10T16:41:52.462Z,6.40
2022-10-10T16:44:19.302Z,6.45
2022-10-10T16:46:46.108Z,7.00
2022-10-10T16:49:16.774Z,4.15
2022-10-10T16:51:43.564Z,2.50
2022-10-10T16:54:10.319Z,5.82
2022-10-10T16:56:37.011Z,7.03
2022-10-10T16:59:04.274Z,8.43
2022-10-10T17:01:31.021Z,4.40
2022-10-10T17:04:01.793Z,5.10
2022-10-10T17:06:34.908Z,12.15
2022-10-10T17:09:02.781Z,12.70
2022-10-10T17:11:29.619Z,11.70
2022-10-10T17:13:56.534Z,10.30
2022-10-10T17:17:07.090Z,11.35
2022-10-10T17:19:14.009Z,5.18
2022-10-10T17:21:40.786Z,5.07
2022-10-10T17:24:10.739Z,8.98
2022-10-10T17:26:40.585Z,9.13
2022-10-10T17:29:09.741Z,5.55
2022-10-10T17:31:36.433Z,5.20
2022-10-10T17:34:03.199Z,5.72
2022-10-10T17:36:31.925Z,5.53
2022-10-10T17:39:01.439Z,7.00
2022-10-10T17:41:29.137Z,6.65
2022-10-10T17:43:55.825Z,6.35
2022-10-10T17:46:36.423Z,7.63
2022-10-10T17:49:08.604Z,5.88
2022-10-10T17:51:37.230Z,8.18
2022-10-10T17:54:05.986Z,6.55
2022-10-10T17:56:33.120Z,2.25
2022-10-10T17:59:01.748Z,9.25
2022-10-10T18:01:30.942Z,4.68
2022-10-10T18:03:58.270Z,7.05
2022-10-10T18:06:25.268Z,9.05
2022-10-10T18:08:54.217Z,4.32
2022-10-10T18:11:23.952Z,5.57
2022-10-10T18:13:51.389Z,4.75
2022-10-10T18:16:21.142Z,5.47
2022-10-10T18:18:51.398Z,7.13
2022-10-10T18:21:20.610Z,4.13
2022-10-10T18:23:47.847Z,8.25
2022-10-10T18:26:17.548Z,7.68
2022-10-10T18:28:44.433Z,6.10
2022-10-10T18:31:15.352Z,7.65
2022-10-10T18:33:44.239Z,6.10
2022-10-10T18:36:13.381Z,7.22
2022-10-10T18:38:40.118Z,5.18
2022-10-10T18:41:16.022Z,7.40
2022-10-10T18:43:43.555Z,7.38
2022-10-10T18:46:13.478Z,7.53
2022-10-10T18:48:40.496Z,8.32
2022-10-10T18:51:17.089Z,7.90
2022-10-10T18:53:45.060Z,7.55
2022-10-10T18:56:14.041Z,6.03
2022-10-10T18:58:41.238Z,11.57
2022-10-10T19:01:11.044Z,5.80
2022-10-10T19:03:39.132Z,5.53
2022-10-10T19:06:07.745Z,6.28
2022-10-10T19:08:35.163Z,7.75
2022-10-10T19:11:02.829Z,4.40
2022-10-10T19:13:30.772Z,7.88
2022-10-10T19:16:03.683Z,7.22
2022-10-10T19:18:30.326Z,14.10
2022-10-10T19:21:02.402Z,6.43
2022-10-10T19:23:29.812Z,8.43
2022-10-10T19:25:56.574Z,7.80
2022-10-10T19:28:23.368Z,11.90
2022-10-10T19:30:50.085Z,10.07
2022-10-10T19:33:16.770Z,11.88
2022-10-10T19:35:51.411Z,9.98
2022-10-10T19:38:19.412Z,11.82
2022-10-10T19:40:47.912Z,6.38
2022-10-10T19:43:18.687Z,9.52
2022-10-10T19:45:47.603Z,8.80
2022-10-10T19:48:21.554Z,5.68
2022-10-10T19:50:48.414Z,6.60
2022-10-10T19:53:17.743Z,5.18
2022-10-10T19:56:05.167Z,7.93
2022-10-10T19:58:32.350Z,7.90
2022-10-10T20:00:59.021Z,6.95
2022-10-10T20:03:26.290Z,6.25
2022-10-10T20:05:52.963Z,7.50
2022-10-10T20:08:20.362Z,7.95
2022-10-10T20:10:47.058Z,6.97
2022-10-10T20:13:16.192Z,8.50
2022-10-10T20:15:44.413Z,11.68
2022-10-10T20:18:11.851Z,7.05
2022-10-10T20:20:43.287Z,7.82
2022-10-10T20:23:11.098Z,7.65
2022-10-10T20:25:42.719Z,7.22
2022-10-10T20:28:10.852Z,5.78
2022-10-10T20:30:44.011Z,6.90
2022-10-10T20:33:11.436Z,7.97
2022-10-10T20:35:38.296Z,5.22
2022-10-10T20:38:05.287Z,5.32
2022-10-10T20:40:32.250Z,9.73
2022-10-10T20:42:58.913Z,8.57
2022-10-10T20:45:25.529Z,16.13
2022-10-10T20:47:52.186Z,11.35
2022-10-10T20:50:19.198Z,10.32
2022-10-10T20:52:45.830Z,7.57
2022-10-10T20:55:12.860Z,10.75
2022-10-10T20:57:39.555Z,11.15
2022-10-10T21:00:06.962Z,11.70
2022-10-10T21:02:34.475Z,8.60
2022-10-10T21:05:01.475Z,7.88
2022-10-10T21:07:29.278Z,7.32
2022-10-10T21:09:55.990Z,11.07
2022-10-10T21:12:22.605Z,7.50
2022-10-10T21:14:49.236Z,6.45
2022-10-10T21:17:16.019Z,9.20
2022-10-10T21:19:42.662Z,7.60
2022-10-10T21:22:09.834Z,9.43
2022-10-10T21:24:36.948Z,13.60
2022-10-10T21:27:04.218Z,13.43
2022-10-10T21:29:30.889Z,9.88
2022-10-10T21:31:57.586Z,7.43
2022-10-10T21:34:24.197Z,8.48
2022-10-10T21:36:50.836Z,10.50
2022-10-10T21:39:17.467Z,8.18
2022-10-10T21:41:44.226Z,10.05
2022-10-10T21:44:11.022Z,9.73
2022-10-10T21:46:37.891Z,12.88
2022-10-10T21:49:11.001Z,18.55
2022-10-10T21:51:41.671Z,13.75
2022-10-10T21:54:08.834Z,11.05
2022-10-10T21:56:36.554Z,6.45
2022-10-10T21:59:03.515Z,11.73
2022-10-10T22:01:33.388Z,5.50
2022-10-10T22:04:01.860Z,12.80
2022-10-10T22:06:28.611Z,13.02
2022-10-10T22:08:57.609Z,14.23
2022-10-10T22:11:27.253Z,9.52
2022-10-10T22:13:54.465Z,8.73
2022-10-10T22:16:21.646Z,13.35
2022-10-10T22:18:48.335Z,8.25
2022-10-10T22:21:16.775Z,9.27
2022-10-10T22:23:44.963Z,7.00
2022-10-10T22:26:14.394Z,9.25
2022-10-10T22:28:41.441Z,11.63
2022-10-10T22:31:10.032Z,8.32
2022-10-10T22:33:37.219Z,8.88
2022-10-10T22:36:05.153Z,14.35
2022-10-10T22:38:32.447Z,8.90
2022-10-10T22:40:59.476Z,11.85
2022-10-10T22:43:27.279Z,7.05
2022-10-10T22:45:54.710Z,9.93
2022-10-10T22:48:21.369Z,8.32
2022-10-10T22:50:48.267Z,8.93
2022-10-10T22:53:15.039Z,8.23
2022-10-10T22:55:41.774Z,8.43
2022-10-10T22:58:09.248Z,6.82
2022-10-10T23:00:36.028Z,11.25
2022-10-10T23:03:02.714Z,11.55
2022-10-10T23:05:29.323Z,12.60
2022-10-10T23:07:55.996Z,5.82
2022-10-10T23:10:22.938Z,4.75
2022-10-10T23:12:49.582Z,9.32
2022-10-10T23:15:16.259Z,6.78
2022-10-10T23:17:42.930Z,11.88
2022-10-10T23:20:10.056Z,11.07
2022-10-10T23:22:36.753Z,10.50
2022-10-10T23:25:04.016Z,5.65
2022-10-10T23:27:30.728Z,10.27
2022-10-10T23:29:57.346Z,11.88
2022-10-10T23:32:26.834Z,9.77
2022-10-10T23:34:53.564Z,7.97
2022-10-10T23:37:20.172Z,9.02
2022-10-10T23:39:46.867Z,4.85
2022-10-10T23:42:13.721Z,10.50
2022-10-10T23:44:40.462Z,8.95
2022-10-10T23:47:07.102Z,9.48
2022-10-10T23:49:33.818Z,8.75
2022-10-10T23:52:00.504Z,10.00
2022-10-10T23:54:27.254Z,9.60
2022-10-10T23:56:54.055Z,10.48
2022-10-10T23:59:20.715Z,9.70
